Altoona, IA

11:12 PM CDT on September 30, 2014 (GMT -0500)
Sheridan Gardens | Change Station
CLOSE
Current Station
Personal Weather Station
Location: Des Moines, IA
Elevation: 922 ft
Nearby Weather Stations

Elev 922 ft 41.63 °N, 93.53 °W | Updated 6 minutes ago

Overcast
Overcast
63.3 °F
Feels Like 63.3 °F
N
0.0
Wind Variable Wind from ESE
Gusts 24.0 mph

Today
High -- | Low -- °F
--% Chance of Precip.
Yesterday
High -- | Low -- °F
Precip. -- in
7:09 AM 6:57 PM
Waxing Crescent, 43% visible
Pressure 29.86 in
Visibility 10.0 miles
Clouds Few 7000 ft
Mostly Cloudy 9000 ft
Overcast 12000 ft
Dew Point 58 °F
Humidity 82%
Rainfall 0.00 in
Snow Depth Not available.
UV 0 out of 12
Pollen 4.90 out of 12
Ozone Good
PM2.5 Good
Flu Activity Not available.
METAR KIKV 010355Z AUTO 09006KT 10SM FEW070 BKN090 OVC120 17/14 A2986 RMK AO2

More Conditions Fewer Conditions

Pressure 29.86 in
Visibility 10.0 miles
Clouds Few 7000 ft
Mostly Cloudy 9000 ft
Overcast 12000 ft
Dew Point 58 °F
Humidity 82%
Rainfall 0.00 in
Snow Depth Not available.
UV 0 out of 12
Pollen 4.90 out of 12
Ozone Good
PM2.5 Good
Flu Activity Not available.
METAR KIKV 010355Z AUTO 09006KT 10SM FEW070 BKN090 OVC120 17/14 A2986 RMK AO2

More Conditions Fewer Conditions

10-Day Weather Forecast

Almanac

Astronomy

Sep. 30, 2014 Rise Set
Actual Time 7:09 AM CDT 6:57 PM CDT
Civil Twilight 6:42 AM CDT 7:24 PM CDT
Nautical Twilight 6:09 AM CDT 7:57 PM CDT
Astronomical Twilight 5:37 AM CDT 8:29 PM CDT
Moon 1:22 PM CDT (9/30) 11:24 PM CDT (9/30)
Length of Visible Light 12h 42m
Length of Day
11h 47m
Tomorrow will be 2m 46s shorter.
Waxing Crescent, 43% of the Moon is Illuminated
Oct 1
Waxing Crescent
Oct 1
First Quarter
Oct 8
Full
Oct 15
Last Quarter
Oct 23
New

Today's Extremes

State Highs State Lows

Community

WunderPhotos

Upload Photos

1,757,840 photos uploaded!

Nearby

Air Quality

  Air Quality AQ Index Pollutant
Yesterday Moderate
PM2.5
Yesterday Good
OZONE
Current Good
PM2.5
Current Good
OZONE
Tuesday Good
OZONE
Tuesday Good
PM2.5
Tuesday Good
CO
Tuesday Good
NO2
Wednesday Good
OZONE
Wednesday Good
PM2.5
Wednesday Good
CO
Wednesday Good
NO2
Thursday Good
OZONE
Thursday Good
PM2.5
Thursday Good
CO
Thursday Good
NO2
Friday Good
OZONE
Friday Good
PM2.5
Friday Good
CO
Friday Good
NO2

Snow Depth

Station Depth Elevation
No new snow has been reported.

Earthquake Activity

City Distance Mag. Time & Date
No recent earthquake activity has been reported nearby.
Minimum magnitude displayed is 2.5.

Coastal Water Temperatures

Place Temperature
No Stations Reporting

Nearby Weather Stations